Time;durP1;ratioP1;P1;durP2;ratioP2;P2;SDS_P1;SDS_P2;PMS_P1;PMS_P2;Temp;Humidity;BMP_temperature;BMP_pressure;BME280_temperature;BME280_humidity;BME280_pressure;Samples;Min_cycle;Max_cycle;Signal;HPM_P1;HPM_P2
2022/07/08 00:02:04;;;;;;;10.53;3.67;;;-10.00;99.90;;;;;;5065469;28;20168;-73
2022/07/08 00:04:30;;;;;;;8.80;2.93;;;-9.40;99.90;;;;;;5065164;28;20171;-70
2022/07/08 00:06:55;;;;;;;10.73;3.50;;;-11.20;99.90;;;;;;5066536;28;20618;-70
2022/07/08 00:09:21;;;;;;;6.10;2.27;;;-10.80;99.90;;;;;;5064920;28;20188;-74
2022/07/08 00:11:47;;;;;;;14.27;2.60;;;-10.80;99.90;;;;;;5065454;28;20172;-72
2022/07/08 00:14:13;;;;;;;7.63;3.20;;;-10.60;99.90;;;;;;5066323;28;20179;-72
2022/07/08 00:16:43;;;;;;;4.73;2.23;;;-11.00;99.90;;;;;;5064519;28;20203;-70
2022/07/08 00:19:14;;;;;;;8.70;3.20;;;-12.60;99.90;;;;;;5065356;28;20177;-75
2022/07/08 00:21:43;;;;;;;7.47;3.00;;;-10.40;99.90;;;;;;5066400;28;20174;-68
2022/07/08 00:24:13;;;;;;;6.90;3.43;;;-12.80;99.90;;;;;;5065537;28;20196;-71
2022/07/08 00:26:41;;;;;;;12.83;3.03;;;-13.60;99.90;;;;;;5064354;28;20243;-72
2022/07/08 00:29:07;;;;;;;10.50;2.27;;;-11.60;99.90;;;;;;5065434;28;20167;-69
2022/07/08 00:31:33;;;;;;;10.77;2.90;;;-14.40;99.90;;;;;;5065034;28;20579;-74
2022/07/08 00:33:59;;;;;;;8.93;3.13;;;-13.10;99.90;;;;;;5064302;28;20176;-68
2022/07/08 00:36:25;;;;;;;9.63;2.87;;;-12.80;99.90;;;;;;5065431;28;20175;-74
2022/07/08 00:38:51;;;;;;;12.87;4.53;;;-10.40;99.90;;;;;;5065334;28;20195;-69
2022/07/08 00:41:17;;;;;;;8.97;2.40;;;-13.50;99.90;;;;;;5064114;28;20227;-71
2022/07/08 00:43:46;;;;;;;9.83;2.77;;;-11.60;99.90;;;;;;5064821;28;20199;-71
2022/07/08 00:46:13;;;;;;;3.67;2.50;;;-15.40;99.90;;;;;;5065603;28;20177;-68
2022/07/08 00:48:39;;;;;;;4.77;2.33;;;-15.30;99.90;;;;;;5063948;28;20184;-69
2022/07/08 00:51:12;;;;;;;7.80;2.37;;;-15.90;99.90;;;;;;5065657;28;20493;-66
2022/07/08 00:53:42;;;;;;;7.10;2.90;;;-14.70;99.90;;;;;;5065831;28;20171;-68
2022/07/08 00:56:09;;;;;;;8.30;3.20;;;-16.00;99.90;;;;;;5064846;28;20477;-73
2022/07/08 00:58:36;;;;;;;5.73;3.07;;;-15.70;99.90;;;;;;5064248;28;20191;-71
2022/07/08 01:01:02;;;;;;;7.97;3.30;;;-13.00;99.90;;;;;;5066006;28;20660;-73
2022/07/08 01:03:27;;;;;;;8.37;3.20;;;-18.20;99.90;;;;;;5064655;28;20195;-71
2022/07/08 01:05:54;;;;;;;10.30;2.73;;;-15.60;99.90;;;;;;5066193;28;20242;-69
2022/07/08 01:08:20;;;;;;;5.77;2.60;;;-14.60;99.90;;;;;;5069857;28;20237;-73
2022/07/08 01:10:46;;;;;;;6.70;3.43;;;-12.70;99.90;;;;;;5068234;28;20273;-69
2022/07/08 01:13:12;;;;;;;7.27;3.60;;;-15.70;99.90;;;;;;5068707;28;20175;-65
2022/07/08 01:15:38;;;;;;;8.73;3.53;;;-16.30;99.90;;;;;;5068811;28;20179;-71
2022/07/08 01:18:04;;;;;;;10.10;3.80;;;-19.30;99.90;;;;;;5068005;28;20522;-74
2022/07/08 01:20:33;;;;;;;6.00;3.90;;;-18.00;99.90;;;;;;5068923;28;20180;-71
2022/07/08 01:23:00;;;;;;;10.17;4.37;;;-16.20;99.90;;;;;;5069459;28;20210;-64
2022/07/08 01:25:26;;;;;;;6.70;4.33;;;-21.30;99.90;;;;;;5067986;28;20186;-65
2022/07/08 01:27:52;;;;;;;3.27;2.70;;;-18.80;99.90;;;;;;5068638;28;20598;-70
2022/07/08 01:30:18;;;;;;;4.57;3.40;;;-20.90;99.90;;;;;;5068664;28;20172;-71
2022/07/08 01:32:45;;;;;;;7.97;2.80;;;-21.40;99.90;;;;;;5067442;28;20183;-63
2022/07/08 01:35:10;;;;;;;6.20;2.73;;;-17.00;99.90;;;;;;5068697;28;20190;-73
2022/07/08 01:37:37;;;;;;;3.97;2.90;;;-21.30;99.90;;;;;;5068786;28;20243;-62
2022/07/08 01:40:03;;;;;;;4.87;2.40;;;-23.10;99.90;;;;;;5067378;28;20176;-63
2022/07/08 01:42:29;;;;;;;7.10;3.57;;;-26.50;99.90;;;;;;5068685;28;20198;-68
2022/07/08 01:44:55;;;;;;;6.90;3.30;;;-23.80;99.90;;;;;;5068732;28;20539;-71
2022/07/08 01:47:21;;;;;;;9.83;3.47;;;-25.20;99.90;;;;;;5067371;28;20205;-63
2022/07/08 01:49:46;;;;;;;9.67;3.60;;;-28.50;99.90;;;;;;5069187;28;20606;-63
2022/07/08 01:52:12;;;;;;;5.77;3.37;;;-27.40;99.90;;;;;;5067728;28;20277;-63
2022/07/08 01:54:38;;;;;;;3.43;2.93;;;-28.10;99.90;;;;;;5067634;28;20178;-63
2022/07/08 01:57:14;;;;;;;5.33;2.87;;;-24.70;99.90;;;;;;5069016;28;20247;-64
2022/07/08 01:59:41;;;;;;;6.17;3.00;;;-24.70;99.90;;;;;;5068995;28;20179;-64
2022/07/08 02:02:07;;;;;;;5.53;3.50;;;-29.80;99.90;;;;;;5066797;28;20175;-65
2022/07/08 02:04:32;;;;;;;10.80;3.70;;;-27.90;99.90;;;;;;5067866;28;20171;-63
2022/07/08 02:06:58;;;;;;;9.07;3.03;;;-30.10;99.90;;;;;;5067972;28;20183;-63
2022/07/08 02:09:24;;;;;;;7.23;2.80;;;-26.20;99.90;;;;;;5066932;28;20186;-62
2022/07/08 02:14:34;;;;;;;6.77;2.67;;;-29.20;99.90;;;;;;5067861;28;20178;-63
2022/07/08 02:17:00;;;;;;;11.20;3.40;;;-29.10;99.90;;;;;;5066298;28;20172;-70
2022/07/08 02:19:25;;;;;;;6.87;3.20;;;-36.80;99.90;;;;;;5068881;28;20180;-73
2022/07/08 02:21:51;;;;;;;6.27;2.77;;;-36.10;99.90;;;;;;5066863;28;20176;-71
2022/07/08 02:24:17;;;;;;;5.90;2.80;;;-35.10;99.90;;;;;;5067290;28;20199;-73
2022/07/08 02:26:43;;;;;;;3.50;2.77;;;-30.10;99.90;;;;;;5068384;28;20172;-70
2022/07/08 02:29:08;;;;;;;12.30;3.13;;;-33.90;99.90;;;;;;5066786;28;20190;-74
2022/07/08 02:31:35;;;;;;;5.37;3.83;;;-34.90;99.90;;;;;;5067669;28;20168;-73
2022/07/08 02:34:01;;;;;;;7.03;3.10;;;-37.00;99.90;;;;;;5068125;28;20180;-69
2022/07/08 02:36:26;;;;;;;6.00;3.20;;;-39.80;99.90;;;;;;5065948;28;20258;-74
2022/07/08 02:38:53;;;;;;;14.07;3.30;;;-40.00;99.90;;;;;;5067660;28;20278;-74
2022/07/08 02:41:19;;;;;;;6.53;3.00;;;-40.00;99.90;;;;;;5067907;28;20182;-72
2022/07/08 02:43:44;;;;;;;8.93;3.20;;;-40.00;99.90;;;;;;5065963;28;20261;-67
2022/07/08 02:46:10;;;;;;;6.37;3.60;;;-40.00;99.90;;;;;;5068158;28;20178;-68
2022/07/08 02:48:36;;;;;;;6.27;3.23;;;-40.00;99.90;;;;;;5067064;28;20198;-73
2022/07/08 02:51:03;;;;;;;4.47;3.10;;;-38.60;99.90;;;;;;5066222;28;20167;-72
2022/07/08 02:53:28;;;;;;;5.43;2.67;;;-40.00;99.90;;;;;;5067988;28;20579;-69
2022/07/08 02:55:54;;;;;;;4.30;2.87;;;-39.50;99.90;;;;;;5066736;28;20171;-66
2022/07/08 02:58:20;;;;;;;5.83;3.13;;;-40.00;99.90;;;;;;5065530;28;20175;-73
2022/07/08 03:00:46;;;;;;;6.23;3.80;;;-40.00;99.90;;;;;;5068034;28;20577;-66
2022/07/08 03:03:12;;;;;;;4.63;2.90;;;-40.00;99.90;;;;;;5066090;28;20187;-69
2022/07/08 03:05:38;;;;;;;5.23;3.37;;;-40.00;99.90;;;;;;5066653;28;20204;-68
2022/07/08 03:08:04;;;;;;;4.17;2.77;;;-40.00;99.90;;;;;;5067476;28;20263;-69
2022/07/08 03:10:29;;;;;;;4.00;3.53;;;-40.00;99.90;;;;;;5065814;28;20180;-71
2022/07/08 03:12:55;;;;;;;4.37;2.87;;;-40.00;99.90;;;;;;5066868;28;20502;-67
2022/07/08 03:15:21;;;;;;;5.93;3.27;;;-40.00;99.90;;;;;;5067100;28;20184;-66
2022/07/08 03:17:47;;;;;;;7.23;3.57;;;-40.00;99.90;;;;;;5065452;28;20164;-71
2022/07/08 03:20:13;;;;;;;6.50;4.07;;;-40.00;99.90;;;;;;5067049;28;20174;-68
2022/07/08 03:22:39;;;;;;;9.50;4.77;;;-38.80;99.90;;;;;;5066546;28;20202;-64
2022/07/08 03:25:05;;;;;;;9.90;3.63;;;-40.00;99.90;;;;;;5065498;28;20254;-64
2022/07/08 03:27:31;;;;;;;9.50;3.03;;;-40.00;99.90;;;;;;5067546;28;20484;-68
2022/07/08 03:29:57;;;;;;;6.20;3.77;;;-40.00;99.90;;;;;;5064980;28;20257;-64
2022/07/08 03:32:23;;;;;;;7.30;4.00;;;-40.00;99.90;;;;;;5065959;28;20179;-73
2022/07/08 03:34:49;;;;;;;8.37;3.40;;;-40.00;99.90;;;;;;5066852;28;20189;-75
2022/07/08 03:37:15;;;;;;;4.77;3.73;;;-40.00;99.90;;;;;;5065619;28;20195;-68
2022/07/08 03:39:41;;;;;;;14.40;4.60;;;-40.00;99.90;;;;;;5065853;28;20220;-69
2022/07/08 03:42:07;;;;;;;3.70;3.00;;;-39.00;99.90;;;;;;5067240;28;20630;-70
2022/07/08 03:44:33;;;;;;;7.27;3.73;;;-40.00;99.90;;;;;;5065027;28;20200;-71
2022/07/08 03:46:59;;;;;;;4.33;2.80;;;-39.80;99.90;;;;;;5066130;28;20202;-69
2022/07/08 03:49:24;;;;;;;6.17;3.47;;;-40.00;99.90;;;;;;5065125;28;20180;-66
2022/07/08 03:51:50;;;;;;;7.87;3.70;;;-40.00;99.90;;;;;;5064882;28;20171;-67
2022/07/08 03:54:16;;;;;;;8.13;3.30;;;-40.00;99.90;;;;;;5066462;28;20187;-69
2022/07/08 03:56:42;;;;;;;4.17;2.57;;;-40.00;99.90;;;;;;5065991;28;20172;-70
2022/07/08 03:59:07;;;;;;;8.80;2.97;;;-38.20;99.90;;;;;;5064756;28;20259;-70
2022/07/08 04:01:33;;;;;;;7.80;3.60;;;-38.10;99.90;;;;;;5066846;28;20171;-72
2022/07/08 04:03:59;;;;;;;12.80;2.70;;;-39.30;99.90;;;;;;5065059;28;20231;-72
2022/07/08 04:06:25;;;;;;;7.30;3.40;;;-39.80;99.90;;;;;;5065098;28;20178;-64
2022/07/08 04:08:50;;;;;;;11.77;3.20;;;-40.00;99.90;;;;;;5066497;28;20255;-66
2022/07/08 04:11:16;;;;;;;4.37;2.63;;;-40.00;99.90;;;;;;5065094;28;20238;-69
2022/07/08 04:13:42;;;;;;;4.60;3.63;;;-40.00;99.90;;;;;;5065693;28;20582;-67
2022/07/08 04:16:12;;;;;;;5.60;3.10;;;-40.00;99.90;;;;;;5066476;28;20251;-73
2022/07/08 04:18:39;;;;;;;6.33;3.43;;;-40.00;99.90;;;;;;5064896;28;20180;-70
2022/07/08 04:21:06;;;;;;;6.03;2.87;;;-40.00;99.90;;;;;;5065023;28;20182;-64
2022/07/08 04:23:32;;;;;;;5.70;2.83;;;-40.00;99.90;;;;;;5066485;28;20214;-67
2022/07/08 04:25:58;;;;;;;4.17;3.20;;;-40.00;99.90;;;;;;5064644;28;20538;-64
2022/07/08 04:28:24;;;;;;;5.53;3.60;;;-40.00;99.90;;;;;;5065387;28;20421;-68
2022/07/08 04:30:50;;;;;;;8.43;4.43;;;-40.00;99.90;;;;;;5066070;28;20175;-69
2022/07/08 04:33:16;;;;;;;9.97;3.70;;;-40.00;99.90;;;;;;5064478;28;20171;-67
2022/07/08 04:35:41;;;;;;;10.00;3.27;;;-40.00;99.90;;;;;;5065487;28;20212;-67
2022/07/08 04:38:07;;;;;;;6.97;3.23;;;-40.00;99.90;;;;;;5064736;28;20596;-63
2022/07/08 04:40:33;;;;;;;3.47;2.57;;;-40.00;99.90;;;;;;5062810;28;20176;-67
2022/07/08 04:42:59;;;;;;;10.57;3.67;;;-39.40;99.90;;;;;;5065934;28;20200;-65
2022/07/08 04:45:25;;;;;;;5.13;3.43;;;-40.00;99.90;;;;;;5065277;28;20599;-67
2022/07/08 04:47:51;;;;;;;6.63;3.20;;;-40.00;99.90;;;;;;5063170;28;20187;-65
2022/07/08 04:50:17;;;;;;;6.77;2.90;;;-40.00;99.90;;;;;;5066184;28;20167;-68
2022/07/08 04:52:44;;;;;;;7.57;3.10;;;-40.00;99.90;;;;;;5063937;28;20179;-67
2022/07/08 04:55:27;;;;;;;10.17;3.03;;;-40.00;99.90;;;;;;5063343;28;20218;-68
2022/07/08 04:58:04;;;;;;;8.30;3.77;;;-40.00;99.90;;;;;;5063895;28;20178;-64
2022/07/08 05:00:31;;;;;;;9.27;3.60;;;-40.00;99.90;;;;;;5064456;28;20250;-65
2022/07/08 05:02:57;;;;;;;5.60;4.53;;;-40.00;99.90;;;;;;5065191;28;20191;-63
2022/07/08 05:05:23;;;;;;;3.87;3.30;;;-40.00;99.90;;;;;;5064713;28;20237;-65
2022/07/08 05:07:49;;;;;;;8.80;3.53;;;-40.00;99.90;;;;;;5064631;28;20198;-64
2022/07/08 05:10:22;;;;;;;5.70;2.70;;;-40.00;99.90;;;;;;5066027;28;20180;-66
2022/07/08 05:12:48;;;;;;;10.50;3.90;;;-40.00;99.90;;;;;;5065321;28;20571;-65
2022/07/08 05:15:14;;;;;;;5.53;2.97;;;-38.50;99.90;;;;;;5063641;28;20585;-71
2022/07/08 05:17:40;;;;;;;7.67;3.87;;;-39.40;99.90;;;;;;5065731;28;20202;-64
2022/07/08 05:20:08;;;;;;;4.20;2.87;;;-40.00;99.90;;;;;;5064193;28;20249;-65
2022/07/08 05:22:34;;;;;;;6.90;3.03;;;-40.00;99.90;;;;;;5065808;28;20196;-68
2022/07/08 05:24:59;;;;;;;10.07;3.90;;;-40.00;99.90;;;;;;5063980;28;20237;-68
2022/07/08 05:27:25;;;;;;;8.43;3.57;;;-38.00;99.90;;;;;;5064963;28;20195;-73
2022/07/08 05:29:51;;;;;;;7.80;4.03;;;-38.60;99.90;;;;;;5065189;28;20178;-65
2022/07/08 05:32:17;;;;;;;6.93;3.33;;;-37.30;99.90;;;;;;5063812;28;20176;-66
2022/07/08 05:34:44;;;;;;;5.50;2.37;;;-39.10;99.90;;;;;;5065098;28;20179;-70
2022/07/08 05:37:11;;;;;;;8.00;3.20;;;-39.80;99.90;;;;;;5063796;28;20511;-67
2022/07/08 05:39:38;;;;;;;11.87;4.53;;;-39.70;99.90;;;;;;5062822;28;20186;-67
2022/07/08 05:42:04;;;;;;;9.60;4.07;;;-40.00;99.90;;;;;;5054611;28;20542;-67
2022/07/08 05:44:30;;;;;;;15.37;3.63;;;-40.00;99.90;;;;;;5054969;28;20195;-66
2022/07/08 05:46:56;;;;;;;10.53;3.77;;;-40.00;99.90;;;;;;5054114;28;20210;-66
2022/07/08 05:49:21;;;;;;;13.07;3.73;;;-40.00;99.90;;;;;;5055374;28;20251;-67
2022/07/08 05:51:47;;;;;;;11.03;4.63;;;-40.00;99.90;;;;;;5064388;28;20183;-73
2022/07/08 05:54:13;;;;;;;6.70;3.30;;;-40.00;99.90;;;;;;5070986;28;20587;-74
2022/07/08 05:56:38;;;;;;;11.03;4.93;;;-35.20;99.90;;;;;;5068249;28;20577;-68
2022/07/08 05:59:04;;;;;;;13.43;4.07;;;-38.90;99.90;;;;;;5067063;28;20168;-76
2022/07/08 06:01:30;;;;;;;15.53;4.57;;;-38.30;99.90;;;;;;5067719;28;20212;-76
2022/07/08 06:03:56;;;;;;;12.10;4.70;;;-38.20;99.90;;;;;;5065855;28;20799;-67
2022/07/08 06:06:22;;;;;;;13.00;3.83;;;-37.40;99.90;;;;;;5063234;28;20221;-76
2022/07/08 06:08:48;;;;;;;10.80;4.10;;;-33.00;99.90;;;;;;5066320;28;20168;-76
2022/07/08 06:11:14;;;;;;;14.17;4.47;;;-34.40;99.90;;;;;;5068493;28;20190;-79
2022/07/08 06:13:40;;;;;;;9.77;3.70;;;-31.10;99.90;;;;;;5065880;28;20176;-79
2022/07/08 06:16:06;;;;;;;9.93;4.17;;;-27.10;99.90;;;;;;5067003;28;20175;-76
2022/07/08 06:18:34;;;;;;;8.63;3.43;;;-36.00;99.90;;;;;;5067538;28;20595;-65
2022/07/08 06:21:00;;;;;;;12.33;3.50;;;-39.00;99.90;;;;;;5066200;28;20202;-75
2022/07/08 06:23:29;;;;;;;11.43;3.80;;;-36.10;99.90;;;;;;5067754;28;20195;-64
2022/07/08 06:25:54;;;;;;;14.43;3.83;;;-37.40;99.90;;;;;;5068051;28;20460;-64
2022/07/08 06:28:20;;;;;;;8.10;3.73;;;-34.80;99.90;;;;;;5065514;28;20179;-67
2022/07/08 06:30:46;;;;;;;9.80;4.53;;;-32.50;99.90;;;;;;5067097;28;20218;-66
2022/07/08 06:33:12;;;;;;;17.07;6.03;;;-33.90;99.90;;;;;;5066797;28;20561;-66
2022/07/08 06:35:38;;;;;;;20.53;5.80;;;-35.60;99.90;;;;;;5056293;28;20233;-65
2022/07/08 06:38:03;;;;;;;12.47;4.30;;;-34.50;99.90;;;;;;5056045;28;20270;-68
2022/07/08 06:40:29;;;;;;;15.90;4.77;;;-34.90;99.90;;;;;;5056489;28;20302;-67
2022/07/08 06:42:55;;;;;;;10.73;3.10;;;-36.70;99.90;;;;;;5055578;28;20230;-69
2022/07/08 06:45:21;;;;;;;17.97;4.17;;;-38.60;99.90;;;;;;5065336;28;20175;-68
2022/07/08 06:47:47;;;;;;;8.87;2.70;;;-37.20;99.90;;;;;;5066405;28;20483;-67
2022/07/08 06:50:12;;;;;;;16.43;3.67;;;-33.50;99.90;;;;;;5067005;28;20179;-68
2022/07/08 06:52:38;;;;;;;13.40;4.53;;;-38.50;99.90;;;;;;5066990;28;20214;-68
2022/07/08 06:55:05;;;;;;;11.30;3.97;;;-34.90;99.90;;;;;;5065867;28;20202;-68
2022/07/08 06:57:30;;;;;;;13.00;3.47;;;-35.90;99.90;;;;;;5066916;28;20167;-66
2022/07/08 06:59:56;;;;;;;12.33;3.10;;;-37.40;99.90;;;;;;5067529;28;20175;-68
2022/07/08 07:02:22;;;;;;;11.80;3.57;;;-37.10;99.90;;;;;;5065480;28;20171;-67
2022/07/08 07:04:48;;;;;;;8.83;2.80;;;-35.90;99.90;;;;;;5066601;28;20171;-65
2022/07/08 07:07:14;;;;;;;11.03;3.60;;;-35.80;99.90;;;;;;5067165;28;20176;-73
2022/07/08 07:09:40;;;;;;;13.47;3.70;;;-33.90;99.90;;;;;;5065828;28;20198;-77
2022/07/08 07:12:07;;;;;;;15.53;3.80;;;-33.30;99.90;;;;;;5067342;28;20176;-70
2022/07/08 07:14:33;;;;;;;15.20;4.37;;;-34.70;99.90;;;;;;5066576;28;20179;-75
2022/07/08 07:16:59;;;;;;;7.70;3.30;;;-35.80;99.90;;;;;;5065930;28;20180;-65
2022/07/08 07:19:26;;;;;;;13.60;3.33;;;-32.90;99.90;;;;;;5067536;28;20171;-65
2022/07/08 07:21:52;;;;;;;5.83;2.80;;;-35.70;99.90;;;;;;5066348;28;20172;-66
2022/07/08 07:24:18;;;;;;;16.20;4.50;;;-34.40;99.90;;;;;;5065967;28;20248;-74
2022/07/08 07:26:44;;;;;;;12.13;2.70;;;-35.60;99.90;;;;;;5067139;28;20171;-64
2022/07/08 07:29:10;;;;;;;9.57;3.07;;;-32.30;99.90;;;;;;5065820;28;20172;-65
2022/07/08 07:31:36;;;;;;;9.30;3.57;;;-36.10;99.90;;;;;;5065299;28;20198;-69
2022/07/08 07:34:03;;;;;;;17.70;3.77;;;-31.70;99.90;;;;;;5067163;28;20180;-65
2022/07/08 07:36:29;;;;;;;8.10;2.83;;;-31.90;99.90;;;;;;5061816;28;20210;-66
2022/07/08 07:38:55;;;;;;;5.27;2.70;;;-32.50;99.90;;;;;;5065194;28;20187;-65
2022/07/08 07:41:21;;;;;;;16.30;3.70;;;-34.60;99.90;;;;;;5065300;28;20201;-66
2022/07/08 07:43:47;;;;;;;10.23;2.90;;;-35.70;99.90;;;;;;5066984;28;20613;-67
2022/07/08 07:46:13;;;;;;;11.17;2.43;;;-31.00;99.90;;;;;;5065655;28;20172;-65
2022/07/08 07:48:39;;;;;;;7.17;2.37;;;-30.90;99.90;;;;;;5065596;28;20198;-65
2022/07/08 07:51:05;;;;;;;10.87;3.80;;;-31.10;99.90;;;;;;5066796;28;20203;-65
2022/07/08 07:53:31;;;;;;;8.23;2.90;;;-33.20;99.90;;;;;;5065343;28;20180;-64
2022/07/08 07:55:57;;;;;;;13.93;2.70;;;-28.80;99.90;;;;;;5064682;28;20483;-65
2022/07/08 07:58:24;;;;;;;11.63;2.80;;;-31.10;99.90;;;;;;5066827;28;20172;-64
2022/07/08 08:00:50;;;;;;;11.13;2.10;;;-29.40;99.90;;;;;;5067380;28;20171;-65
2022/07/08 08:03:16;;;;;;;10.30;3.30;;;-29.80;99.90;;;;;;5062025;28;20238;-65
2022/07/08 08:05:42;;;;;;;11.87;2.77;;;-33.00;99.90;;;;;;5066555;28;20164;-64
2022/07/08 08:08:11;;;;;;;5.00;2.53;;;-32.40;99.90;;;;;;5062887;28;20176;-64
2022/07/08 08:10:37;;;;;;;14.83;3.40;;;-30.00;99.90;;;;;;5067077;28;20168;-65
2022/07/08 08:13:04;;;;;;;9.97;2.63;;;-30.70;99.90;;;;;;5065916;28;20175;-65
2022/07/08 08:15:31;;;;;;;14.73;4.87;;;-28.50;99.90;;;;;;5066619;28;20204;-65
2022/07/08 08:17:57;;;;;;;9.90;2.90;;;-28.90;99.90;;;;;;5067573;28;20696;-66
2022/07/08 08:20:25;;;;;;;7.67;3.00;;;-29.80;99.90;;;;;;5066959;28;20575;-65
2022/07/08 08:22:51;;;;;;;5.73;2.20;;;-29.00;99.90;;;;;;5060507;28;20554;-65
2022/07/08 08:25:21;;;;;;;10.30;2.87;;;-29.10;99.30;;;;;;5068280;28;20179;-65
2022/07/08 08:27:47;;;;;;;8.83;2.47;;;-33.10;98.50;;;;;;5063547;28;20172;-68
2022/07/08 08:30:15;;;;;;;11.10;2.30;;;-30.40;98.70;;;;;;5069074;28;20176;-68
2022/07/08 08:32:41;;;;;;;5.87;2.60;;;-30.90;98.90;;;;;;5066026;28;20168;-65
2022/07/08 08:35:08;;;;;;;8.07;3.07;;;-32.70;97.20;;;;;;5067413;28;21538;-65
2022/07/08 08:37:34;;;;;;;6.30;2.03;;;-32.60;96.90;;;;;;5065342;28;20187;-65
2022/07/08 08:40:11;;;;;;;9.57;3.53;;;-34.90;95.50;;;;;;5067104;28;20238;-65
2022/07/08 08:42:38;;;;;;;6.00;2.90;;;-32.50;95.90;;;;;;5064709;28;20182;-65
2022/07/08 08:45:05;;;;;;;8.90;2.10;;;-36.90;94.90;;;;;;5065928;28;20217;-66
2022/07/08 08:47:33;;;;;;;6.03;2.00;;;-31.20;96.30;;;;;;5054065;28;20601;-66
2022/07/08 08:52:49;;;;;;;5.27;2.40;;;-31.30;96.50;;;;;;5065915;28;20193;-65
2022/07/08 08:55:28;;;;;;;15.17;3.77;;;-35.20;94.90;;;;;;5065172;28;20180;-70
2022/07/08 08:58:03;;;;;;;10.63;2.30;;;-34.00;95.30;;;;;;5065616;28;20195;-67
2022/07/08 09:00:30;;;;;;;5.53;1.90;;;-33.30;96.70;;;;;;5068943;28;20235;-66
2022/07/08 09:02:57;;;;;;;7.50;3.53;;;-29.10;96.10;;;;;;5064952;28;20540;-68
2022/07/08 09:05:25;;;;;;;5.30;2.20;;;-28.90;95.60;;;;;;5062214;28;20211;-65
2022/07/08 09:07:51;;;;;;;7.13;1.90;;;-33.70;94.40;;;;;;5067764;28;20202;-67
2022/07/08 09:10:17;;;;;;;7.63;2.47;;;-32.40;95.50;;;;;;5063510;28;20286;-68
2022/07/08 09:13:00;;;;;;;7.00;2.50;;;-33.70;94.60;;;;;;5067680;28;20175;-68
2022/07/08 09:15:38;;;;;;;10.43;3.13;;;-35.40;94.00;;;;;;5067710;28;20226;-67
2022/07/08 09:18:10;;;;;;;10.87;2.37;;;-32.70;93.80;;;;;;5065927;28;20182;-77
2022/07/08 09:20:53;;;;;;;2.63;1.73;;;-36.40;91.40;;;;;;5062884;28;20250;-79
2022/07/08 09:23:35;;;;;;;9.67;2.50;;;-40.00;90.50;;;;;;5066209;28;20195;-67
2022/07/08 09:26:03;;;;;;;9.30;2.70;;;-37.90;91.10;;;;;;5062753;28;20168;-69
2022/07/08 09:28:32;;;;;;;7.87;2.07;;;-40.00;90.00;;;;;;5068923;28;20179;-78
2022/07/08 09:31:00;;;;;;;9.17;1.70;;;-38.60;89.50;;;;;;5069259;28;20199;-77
2022/07/08 09:33:26;;;;;;;8.87;2.23;;;-37.80;90.20;;;;;;5070453;28;20641;-70
2022/07/08 09:35:53;;;;;;;4.60;1.97;;;-40.00;88.40;;;;;;5066212;28;20190;-73
2022/07/08 09:38:20;;;;;;;6.63;2.13;;;-36.10;90.60;;;;;;5067205;28;20496;-71
2022/07/08 09:41:09;;;;;;;6.13;2.03;;;-40.00;88.70;;;;;;5065347;28;20233;-70
2022/07/08 09:43:49;;;;;;;13.17;2.50;;;-40.00;90.80;;;;;;5068040;28;20195;-71
2022/07/08 09:46:16;;;;;;;2.53;2.17;;;-35.50;92.10;;;;;;5067808;28;20254;-75
2022/07/08 09:48:42;;;;;;;5.37;1.90;;;-40.00;90.00;;;;;;5066715;28;20199;-73
2022/07/08 09:51:08;;;;;;;6.87;2.17;;;-40.00;86.50;;;;;;5068136;28;20486;-76
2022/07/08 09:53:35;;;;;;;7.53;2.33;;;-40.00;85.40;;;;;;5065397;28;20259;-71
2022/07/08 09:56:02;;;;;;;4.37;1.83;;;-40.00;85.50;;;;;;5067656;28;20182;-76
2022/07/08 09:58:30;;;;;;;4.47;1.93;;;-40.00;81.70;;;;;;5064488;28;20607;-65
2022/07/08 10:00:57;;;;;;;5.23;2.40;;;-40.00;83.50;;;;;;5066917;28;20183;-64
2022/07/08 10:03:24;;;;;;;5.80;2.77;;;-40.00;86.60;;;;;;5064560;28;20203;-66
2022/07/08 10:05:50;;;;;;;9.67;3.10;;;-40.00;82.70;;;;;;5066942;28;20672;-65
2022/07/08 10:08:17;;;;;;;6.70;3.37;;;-40.00;83.40;;;;;;5066872;28;20167;-65
2022/07/08 10:10:45;;;;;;;5.77;2.87;;;-40.00;81.90;;;;;;5070973;28;20267;-67
2022/07/08 10:13:11;;;;;;;4.30;1.83;;;-40.00;80.50;;;;;;5067886;28;20187;-67
2022/07/08 10:15:38;;;;;;;6.70;1.60;;;-40.00;82.00;;;;;;5071816;28;20631;-66
2022/07/08 10:18:10;;;;;;;6.10;2.07;;;-40.00;85.90;;;;;;5067254;28;20167;-68
2022/07/08 10:20:40;;;;;;;13.53;3.23;;;-40.00;86.10;;;;;;5069142;28;20168;-68
2022/07/08 10:23:19;;;;;;;4.47;2.67;;;-40.00;85.40;;;;;;5067974;28;20183;-71
2022/07/08 10:25:46;;;;;;;6.67;2.87;;;-40.00;80.50;;;;;;5067424;28;20167;-66
2022/07/08 10:28:12;;;;;;;4.80;2.20;;;-40.00;79.80;;;;;;5068255;28;20262;-73
2022/07/08 10:30:46;;;;;;;6.70;2.00;;;-40.00;78.20;;;;;;5069403;28;20250;-74
2022/07/08 10:33:23;;;;;;;4.37;1.53;;;-40.00;80.30;;;;;;5065041;28;20175;-66
2022/07/08 10:36:02;;;;;;;10.47;2.77;;;-40.00;85.10;;;;;;5068302;28;20497;-66
2022/07/08 10:38:43;;;;;;;6.17;1.93;;;-40.00;83.30;;;;;;5066076;28;20241;-68
2022/07/08 10:41:11;;;;;;;6.40;2.70;;;21.50;99.90;;;;;;5069010;28;20186;-75
2022/07/08 10:43:48;;;;;;;5.37;2.17;;;21.60;99.90;;;;;;5064484;28;20202;-77
2022/07/08 10:46:16;;;;;;;2.30;1.50;;;21.50;99.90;;;;;;5067639;28;20217;-78
2022/07/08 10:48:45;;;;;;;7.37;2.07;;;21.50;99.90;;;;;;5064638;28;20540;-71
2022/07/08 10:51:29;;;;;;;9.93;2.40;;;21.40;99.90;;;;;;5064229;28;20192;-67
2022/07/08 10:54:06;;;;;;;8.47;2.33;;;20.80;99.90;;;;;;5068758;28;20174;-66
2022/07/08 10:56:48;;;;;;;2.43;1.83;;;22.30;99.90;;;;;;5065378;28;20190;-66
2022/07/08 10:59:35;;;;;;;2.20;1.73;;;22.40;99.90;;;;;;5068769;28;20175;-67
2022/07/08 11:02:13;;;;;;;5.10;2.03;;;22.40;99.90;;;;;;5067677;28;20172;-68
2022/07/08 11:04:40;;;;;;;5.63;1.97;;;22.50;99.90;;;;;;5069109;28;20283;-66
2022/07/08 11:07:18;;;;;;;6.50;2.40;;;22.60;99.90;;;;;;5067758;28;20429;-65
2022/07/08 11:09:51;;;;;;;5.20;1.80;;;21.90;99.90;;;;;;5067966;28;20206;-74
2022/07/08 11:12:20;;;;;;;6.57;2.40;;;23.10;99.90;;;;;;5066629;28;20195;-74
2022/07/08 11:14:50;;;;;;;5.07;1.50;;;23.30;99.90;;;;;;5066622;28;20478;-74
2022/07/08 11:17:29;;;;;;;5.93;2.00;;;23.30;99.90;;;;;;5063758;28;20184;-77
2022/07/08 11:19:58;;;;;;;3.50;1.40;;;22.90;99.90;;;;;;5067812;28;20579;-68
2022/07/08 11:22:25;;;;;;;4.90;2.90;;;23.80;99.90;;;;;;5065688;28;20171;-69
2022/07/08 11:24:52;;;;;;;6.57;1.70;;;23.90;99.90;;;;;;5068997;28;20203;-74
2022/07/08 11:27:33;;;;;;;7.30;2.07;;;23.90;99.60;;;;;;5068243;28;20164;-75
2022/07/08 11:30:10;;;;;;;6.80;2.50;;;23.80;99.30;;;;;;5067474;28;20250;-68
2022/07/08 11:32:36;;;;;;;13.27;3.13;;;24.00;99.90;;;;;;5067466;28;20592;-68
2022/07/08 11:35:02;;;;;;;6.93;2.50;;;23.70;98.90;;;;;;5066383;28;20179;-69
2022/07/08 11:37:32;;;;;;;6.63;2.30;;;23.90;99.10;;;;;;5067391;28;20202;-70
2022/07/08 11:39:58;;;;;;;10.27;1.90;;;23.80;99.90;;;;;;5065983;28;20274;-74
2022/07/08 11:42:24;;;;;;;7.87;1.80;;;-24.90;77.80;;;;;;5066550;28;20259;-78
2022/07/08 11:44:51;;;;;;;3.40;1.73;;;-25.20;79.30;;;;;;5064426;28;20283;-77
2022/07/08 11:47:22;;;;;;;9.80;2.57;;;-26.50;73.30;;;;;;5068143;28;20191;-78
2022/07/08 11:49:49;;;;;;;4.27;1.63;;;-30.80;75.20;;;;;;5063390;28;20511;-78
2022/07/08 11:52:19;;;;;;;7.57;2.07;;;-24.80;77.40;;;;;;5068323;28;20186;-76
2022/07/08 11:54:46;;;;;;;4.30;2.30;;;-29.40;72.30;;;;;;5065101;28;20183;-73
2022/07/08 11:57:13;;;;;;;4.70;2.07;;;-30.80;69.90;;;;;;5067842;28;20184;-76
2022/07/08 11:59:39;;;;;;;3.33;1.40;;;-35.80;63.00;;;;;;5068902;28;20266;-78
2022/07/08 12:02:06;;;;;;;16.70;2.80;;;27.00;96.20;;;;;;5066542;28;20250;-76
2022/07/08 12:04:32;;;;;;;2.33;1.57;;;27.30;96.20;;;;;;5066314;28;20234;-77
2022/07/08 12:07:00;;;;;;;5.57;2.07;;;28.10;94.50;;;;;;5065471;28;20171;-77
2022/07/08 12:09:28;;;;;;;4.50;1.70;;;27.90;93.20;;;;;;5066232;28;20237;-76
2022/07/08 12:11:55;;;;;;;5.07;1.73;;;-40.00;56.70;;;;;;5067200;28;20230;-73
2022/07/08 12:14:22;;;;;;;4.10;1.60;;;-40.00;53.80;;;;;;5068401;28;20217;-73
2022/07/08 12:16:49;;;;;;;3.60;1.48;;;-27.50;57.10;;;;;;5064641;28;20173;-74
2022/07/08 12:19:35;;;;;;;6.97;2.05;;;-26.90;54.20;;;;;;5066224;28;20178;-68
2022/07/08 12:22:03;;;;;;;2.42;1.52;;;-27.30;55.30;;;;;;5066172;28;20503;-69
2022/07/08 12:24:37;;;;;;;2.00;1.70;;;-40.00;49.20;;;;;;5064287;28;20542;-69
2022/07/08 12:27:17;;;;;;;5.38;2.30;;;-40.00;46.80;;;;;;5064519;28;20250;-70
2022/07/08 12:29:43;;;;;;;4.63;1.92;;;-40.00;48.10;;;;;;5065040;28;20170;-70
2022/07/08 12:32:11;;;;;;;3.35;1.40;;;-34.10;48.80;;;;;;5066391;28;20597;-70
2022/07/08 12:34:48;;;;;;;6.18;2.80;;;-34.70;49.60;;;;;;5063889;28;20542;-69
2022/07/08 12:37:19;;;;;;;4.15;2.15;;;-34.00;51.10;;;;;;5064657;28;20218;-70
2022/07/08 12:39:46;;;;;;;6.72;2.28;;;-18.70;58.90;;;;;;5062742;28;20184;-69
2022/07/08 12:42:12;;;;;;;6.03;2.63;;;-13.90;63.10;;;;;;5064621;28;20263;-69
2022/07/08 12:44:39;;;;;;;5.00;1.60;;;-23.10;58.70;;;;;;5064995;28;20559;-69